createdAt,value
2022-10-03T00:02:09.652Z,9.97
2022-10-03T00:05:05.045Z,9.89
2022-10-03T00:07:52.826Z,9.94
2022-10-03T00:10:25.664Z,9.80
2022-10-03T00:13:44.804Z,9.86
2022-10-03T00:16:20.822Z,9.94
2022-10-03T00:18:50.574Z,9.84
2022-10-03T00:21:26.363Z,9.78
2022-10-03T00:24:11.428Z,9.83
2022-10-03T00:26:50.174Z,9.84
2022-10-03T00:29:38.663Z,9.81
2022-10-03T00:32:30.435Z,9.75
2022-10-03T00:35:03.245Z,9.71
2022-10-03T00:37:54.434Z,9.66
2022-10-03T00:40:56.562Z,9.70
2022-10-03T00:43:54.067Z,9.63
2022-10-03T00:46:32.771Z,9.60
2022-10-03T00:49:29.131Z,9.67
2022-10-03T00:52:29.832Z,9.70
2022-10-03T00:55:05.042Z,9.60
2022-10-03T00:57:54.636Z,9.63
2022-10-03T01:00:27.535Z,9.54
2022-10-03T01:03:16.152Z,9.58
2022-10-03T01:06:04.654Z,9.65
2022-10-03T01:08:40.234Z,9.67
2022-10-03T01:11:13.073Z,9.63
2022-10-03T01:13:54.561Z,9.56
2022-10-03T01:16:43.075Z,9.63
2022-10-03T01:19:24.906Z,9.61
2022-10-03T01:22:39.562Z,9.60
2022-10-03T01:25:19.637Z,9.58
2022-10-03T01:28:43.783Z,9.62
2022-10-03T01:31:12.638Z,9.58
2022-10-03T01:33:49.006Z,9.56
2022-10-03T01:36:40.114Z,9.58
2022-10-03T01:39:32.675Z,9.63
2022-10-03T01:42:04.491Z,9.61
2022-10-03T01:44:46.528Z,9.60
2022-10-03T01:47:28.434Z,9.59
2022-10-03T01:50:26.515Z,9.51
2022-10-03T01:53:22.472Z,9.58
2022-10-03T01:56:07.425Z,9.53
2022-10-03T01:58:56.910Z,9.52
2022-10-03T02:01:35.551Z,9.45
2022-10-03T02:04:04.441Z,9.45
2022-10-03T02:06:50.423Z,9.36
2022-10-03T02:09:17.024Z,9.29
2022-10-03T02:11:50.329Z,9.35
2022-10-03T02:14:35.252Z,9.34
2022-10-03T02:17:07.659Z,9.36
2022-10-03T02:19:34.271Z,9.34
2022-10-03T02:22:01.045Z,9.36
2022-10-03T02:24:36.534Z,9.39
2022-10-03T02:27:21.656Z,9.44
2022-10-03T02:30:05.292Z,9.42
2022-10-03T02:33:09.630Z,9.40
2022-10-03T02:36:00.971Z,9.32
2022-10-03T02:38:48.855Z,9.32
2022-10-03T02:41:34.433Z,9.25
2022-10-03T02:44:19.885Z,9.22
2022-10-03T02:46:49.252Z,9.24
2022-10-03T02:49:25.036Z,9.24
2022-10-03T02:51:54.874Z,9.26
2022-10-03T02:54:56.333Z,9.23
2022-10-03T02:58:00.924Z,9.20
2022-10-03T03:01:05.455Z,9.18
2022-10-03T03:03:47.326Z,9.15
2022-10-03T03:06:20.332Z,9.14
2022-10-03T03:09:27.294Z,9.17
2022-10-03T03:12:10.132Z,9.17
2022-10-03T03:14:55.142Z,9.09
2022-10-03T03:17:34.176Z,9.14
2022-10-03T03:20:23.322Z,9.12
2022-10-03T03:22:53.112Z,9.17
2022-10-03T03:25:45.014Z,9.17
2022-10-03T03:28:40.882Z,9.15
2022-10-03T03:31:17.114Z,9.14
2022-10-03T03:33:56.164Z,9.14
2022-10-03T03:36:25.954Z,9.15
2022-10-03T03:39:06.801Z,9.08
2022-10-03T03:41:47.301Z,9.15
2022-10-03T03:44:54.421Z,9.17
2022-10-03T03:47:54.642Z,9.21
2022-10-03T03:50:46.056Z,9.18
2022-10-03T03:53:27.675Z,9.11
2022-10-03T03:56:06.673Z,9.12
2022-10-03T03:58:39.275Z,9.14
2022-10-03T04:01:36.351Z,9.15
2022-10-03T04:04:35.382Z,9.10
2022-10-03T04:07:17.245Z,9.04
2022-10-03T04:09:59.834Z,9.08
2022-10-03T04:12:41.734Z,9.00
2022-10-03T04:15:18.532Z,8.94
2022-10-03T04:18:30.506Z,9.00
2022-10-03T04:21:07.858Z,9.03
2022-10-03T04:23:53.501Z,9.03
2022-10-03T04:26:34.708Z,9.03
2022-10-03T04:29:27.514Z,8.96
2022-10-03T04:32:23.300Z,8.97
2022-10-03T04:35:07.391Z,8.94
2022-10-03T04:37:44.661Z,8.92
2022-10-03T04:40:38.491Z,8.93
2022-10-03T04:43:10.488Z,8.86
2022-10-03T04:45:49.411Z,8.81
2022-10-03T04:48:22.679Z,8.67
2022-10-03T04:51:07.581Z,8.79
2022-10-03T04:53:42.420Z,8.82
2022-10-03T04:56:53.813Z,8.75
2022-10-03T04:59:41.214Z,8.85
2022-10-03T05:02:15.334Z,8.91
2022-10-03T05:05:11.073Z,8.90
2022-10-03T05:08:14.953Z,8.91
2022-10-03T05:11:19.041Z,8.86
2022-10-03T05:13:57.724Z,8.84
2022-10-03T05:16:32.233Z,8.85
2022-10-03T05:19:05.273Z,8.83
2022-10-03T05:21:45.654Z,8.89
2022-10-03T05:24:24.560Z,8.81
2022-10-03T05:27:11.247Z,8.84
2022-10-03T05:29:40.141Z,8.82
2022-10-03T05:32:25.557Z,8.85
2022-10-03T05:35:26.250Z,9.12
2022-10-03T05:37:58.844Z,9.23
2022-10-03T05:40:27.381Z,9.14
2022-10-03T05:43:19.113Z,8.93
2022-10-03T05:46:12.914Z,8.95
2022-10-03T05:48:55.994Z,8.95
2022-10-03T05:51:50.933Z,9.12
2022-10-03T05:55:12.589Z,9.13
2022-10-03T05:58:16.485Z,9.13
2022-10-03T06:01:01.983Z,9.19
2022-10-03T06:03:53.053Z,9.18
2022-10-03T06:07:04.798Z,9.25
2022-10-03T06:10:01.073Z,9.69
2022-10-03T06:12:39.154Z,9.72
2022-10-03T06:15:45.611Z,9.87
2022-10-03T06:18:32.414Z,10.17
2022-10-03T06:21:17.255Z,10.29
2022-10-03T06:24:17.549Z,10.16
2022-10-03T06:27:02.923Z,10.15
2022-10-03T06:29:44.993Z,10.01
2022-10-03T06:32:24.511Z,9.89
2022-10-03T06:35:06.472Z,9.86
2022-10-03T06:37:58.112Z,9.92
2022-10-03T06:40:49.894Z,9.99
2022-10-03T06:43:32.035Z,10.18
2022-10-03T06:46:10.803Z,10.08
2022-10-03T06:49:22.024Z,9.94
2022-10-03T06:51:59.798Z,10.33
2022-10-03T06:54:51.577Z,10.37
2022-10-03T06:57:30.491Z,10.38
2022-10-03T07:00:20.055Z,10.26
2022-10-03T07:03:08.156Z,10.27
2022-10-03T07:06:09.343Z,10.34
2022-10-03T07:09:09.953Z,10.61
2022-10-03T07:12:01.527Z,10.64
2022-10-03T07:14:39.318Z,10.55
2022-10-03T07:17:08.734Z,10.48
2022-10-03T07:20:06.575Z,10.39
2022-10-03T07:23:17.954Z,10.45
2022-10-03T07:26:19.882Z,10.54
2022-10-03T07:29:03.345Z,10.44
2022-10-03T07:31:52.971Z,10.46
2022-10-03T07:34:57.154Z,10.47
2022-10-03T07:38:17.695Z,10.54
2022-10-03T07:41:15.603Z,10.75
2022-10-03T07:44:00.475Z,10.72
2022-10-03T07:46:35.475Z,10.84
2022-10-03T07:49:20.468Z,10.64
2022-10-03T07:52:24.653Z,10.67
2022-10-03T07:55:15.107Z,10.70
2022-10-03T07:58:13.213Z,10.70
2022-10-03T08:00:59.983Z,10.62
2022-10-03T08:03:42.041Z,10.72
2022-10-03T08:06:28.969Z,10.68
2022-10-03T08:08:58.311Z,11.84
2022-10-03T08:11:50.499Z,12.83
2022-10-03T08:14:26.526Z,13.27
2022-10-03T08:17:14.894Z,13.79
2022-10-03T08:20:17.105Z,14.38
2022-10-03T08:22:47.905Z,14.19
2022-10-03T08:25:33.846Z,12.96
2022-10-03T08:28:15.639Z,12.83
2022-10-03T08:30:42.299Z,12.91
2022-10-03T08:33:32.073Z,12.59
2022-10-03T08:36:29.785Z,12.90
2022-10-03T08:39:30.321Z,13.47
2022-10-03T08:42:35.146Z,13.05
2022-10-03T08:45:26.905Z,12.65
2022-10-03T08:47:53.573Z,12.44
2022-10-03T08:50:23.023Z,12.42
2022-10-03T08:53:11.154Z,12.17
2022-10-03T08:55:56.173Z,12.00
2022-10-03T08:58:31.983Z,12.45
2022-10-03T09:01:23.640Z,12.91
2022-10-03T09:03:59.613Z,12.91
2022-10-03T09:07:16.664Z,12.88
2022-10-03T09:09:44.414Z,12.78
2022-10-03T09:12:31.857Z,12.66
2022-10-03T09:15:26.755Z,12.61
2022-10-03T09:18:05.484Z,12.63
2022-10-03T09:20:47.403Z,12.39
2022-10-03T09:23:30.154Z,12.26
2022-10-03T09:26:12.523Z,12.26
2022-10-03T09:29:02.693Z,12.40
2022-10-03T09:31:44.103Z,12.17
2022-10-03T09:34:42.210Z,12.24
2022-10-03T09:37:22.863Z,11.87
2022-10-03T09:39:55.428Z,11.74
2022-10-03T09:42:50.128Z,11.65
2022-10-03T09:45:46.428Z,12.01
2022-10-03T09:48:39.828Z,11.90
2022-10-03T09:51:21.953Z,12.06
2022-10-03T09:54:28.375Z,12.02
2022-10-03T09:57:04.207Z,12.17
2022-10-03T09:59:57.358Z,12.44
2022-10-03T10:02:42.738Z,12.62
2022-10-03T10:05:44.714Z,12.54
2022-10-03T10:08:21.069Z,12.17
2022-10-03T10:11:06.469Z,12.22
2022-10-03T10:14:10.318Z,12.10
2022-10-03T10:16:55.313Z,12.07
2022-10-03T10:19:53.629Z,12.21
2022-10-03T10:22:47.081Z,12.41
2022-10-03T10:25:38.560Z,12.30
2022-10-03T10:28:30.090Z,12.39
2022-10-03T10:31:09.245Z,12.18
2022-10-03T10:33:54.768Z,12.09
2022-10-03T10:36:47.379Z,12.09
2022-10-03T10:39:46.080Z,12.26
2022-10-03T10:42:44.136Z,12.20
2022-10-03T10:45:48.848Z,12.40
2022-10-03T10:49:02.850Z,12.59
2022-10-03T10:52:01.529Z,12.81
2022-10-03T10:54:49.157Z,12.74
2022-10-03T10:57:26.838Z,12.64
2022-10-03T11:00:31.678Z,12.72
2022-10-03T11:03:37.557Z,13.58
2022-10-03T11:06:23.168Z,14.14
2022-10-03T11:09:10.868Z,14.15
2022-10-03T11:12:26.095Z,13.97
2022-10-03T11:15:26.876Z,13.72
2022-10-03T11:18:27.572Z,13.30
2022-10-03T11:20:55.379Z,13.37
2022-10-03T11:23:59.138Z,13.29
2022-10-03T11:26:38.309Z,13.35
2022-10-03T11:29:40.008Z,13.50
2022-10-03T11:32:44.188Z,13.42
2022-10-03T11:35:22.808Z,13.61
2022-10-03T11:38:32.888Z,13.52
2022-10-03T11:41:18.280Z,13.23
2022-10-03T11:44:09.617Z,13.46
2022-10-03T11:47:14.658Z,13.54
2022-10-03T11:50:01.130Z,13.55
2022-10-03T11:52:29.209Z,13.69
2022-10-03T11:55:34.478Z,13.67
2022-10-03T11:58:01.119Z,13.51
2022-10-03T12:00:33.888Z,13.63
2022-10-03T12:03:37.418Z,13.76
2022-10-03T12:06:29.828Z,13.61
2022-10-03T12:09:20.690Z,13.39
2022-10-03T12:11:56.519Z,13.42
2022-10-03T12:14:25.222Z,13.56
2022-10-03T12:17:02.768Z,14.13
2022-10-03T12:20:07.198Z,14.15
2022-10-03T12:22:42.810Z,13.90
2022-10-03T12:25:30.459Z,13.83
2022-10-03T12:28:21.135Z,13.66
2022-10-03T12:30:52.139Z,13.71
2022-10-03T12:33:40.458Z,13.67
2022-10-03T12:36:13.947Z,14.11
2022-10-03T12:38:58.838Z,14.21
2022-10-03T12:41:56.421Z,14.29
2022-10-03T12:44:29.899Z,14.22
2022-10-03T12:47:54.831Z,14.34
2022-10-03T12:50:57.766Z,14.44
2022-10-03T12:53:30.358Z,14.60
2022-10-03T12:56:08.328Z,14.85
2022-10-03T12:59:33.871Z,14.21
2022-10-03T13:02:12.522Z,14.41
2022-10-03T13:05:10.688Z,14.20
2022-10-03T13:08:01.798Z,13.88
2022-10-03T13:10:37.562Z,14.13
2022-10-03T13:13:19.288Z,14.40
2022-10-03T13:16:09.045Z,14.51
2022-10-03T13:18:57.509Z,14.59
2022-10-03T13:21:54.500Z,15.19
2022-10-03T13:24:23.969Z,15.06
2022-10-03T13:27:32.453Z,15.10
2022-10-03T13:30:29.187Z,15.47
2022-10-03T13:33:17.478Z,15.18
2022-10-03T13:35:59.310Z,15.23
2022-10-03T13:38:51.389Z,15.15
2022-10-03T13:41:30.808Z,15.30
2022-10-03T13:44:10.148Z,15.14
2022-10-03T13:47:03.698Z,15.39
2022-10-03T13:49:34.403Z,15.44
2022-10-03T13:52:35.725Z,15.31
2022-10-03T13:55:28.987Z,15.19
2022-10-03T13:58:00.095Z,15.13
2022-10-03T14:00:31.769Z,15.06
2022-10-03T14:03:19.748Z,14.92
2022-10-03T14:06:11.038Z,14.79
2022-10-03T14:08:59.478Z,14.88
2022-10-03T14:11:48.038Z,15.16
2022-10-03T14:14:43.288Z,15.03
2022-10-03T14:17:38.618Z,14.67
2022-10-03T14:20:12.967Z,14.90
2022-10-03T14:22:59.888Z,15.00
2022-10-03T14:25:29.470Z,15.04
2022-10-03T14:28:11.262Z,15.09
2022-10-03T14:31:04.654Z,14.85
2022-10-03T14:33:39.062Z,14.71
2022-10-03T14:36:33.499Z,14.63
2022-10-03T14:39:12.860Z,14.43
2022-10-03T14:41:56.738Z,14.43
2022-10-03T14:44:45.668Z,14.47
2022-10-03T14:47:18.637Z,14.28
2022-10-03T14:49:59.461Z,14.16
2022-10-03T14:52:38.200Z,14.40
2022-10-03T14:55:27.572Z,14.05
2022-10-03T14:58:11.064Z,14.03
2022-10-03T15:00:45.388Z,13.99
2022-10-03T15:03:17.926Z,14.00
2022-10-03T15:05:56.859Z,13.74
2022-10-03T15:08:25.029Z,13.73
2022-10-03T15:10:53.768Z,13.51
2022-10-03T15:13:21.768Z,13.50
2022-10-03T15:15:49.089Z,13.52
2022-10-03T15:18:19.427Z,13.51
2022-10-03T15:20:47.299Z,13.51
2022-10-03T15:23:22.099Z,13.71
2022-10-03T15:25:53.250Z,13.62
2022-10-03T15:28:49.010Z,13.49
2022-10-03T15:31:43.561Z,13.47
2022-10-03T15:34:25.518Z,13.33
2022-10-03T15:36:59.037Z,13.08
2022-10-03T15:39:30.059Z,13.18
2022-10-03T15:42:07.888Z,12.96
2022-10-03T15:44:40.427Z,13.06
2022-10-03T15:47:15.627Z,12.92
2022-10-03T15:50:22.458Z,12.73
2022-10-03T15:53:08.172Z,12.57
2022-10-03T15:55:49.983Z,12.27
2022-10-03T15:58:33.137Z,12.71
2022-10-03T16:01:08.680Z,12.54
2022-10-03T16:03:48.387Z,12.25
2022-10-03T16:06:21.839Z,12.23
2022-10-03T16:09:19.747Z,12.13
2022-10-03T16:12:09.408Z,12.01
2022-10-03T16:15:17.354Z,11.85
2022-10-03T16:17:53.365Z,11.83
2022-10-03T16:20:28.319Z,11.62
2022-10-03T16:22:57.478Z,11.76
2022-10-03T16:25:56.601Z,11.61
2022-10-03T16:28:39.563Z,11.55
2022-10-03T16:31:13.438Z,11.43
2022-10-03T16:33:53.536Z,11.33
2022-10-03T16:36:25.268Z,11.31
2022-10-03T16:38:55.937Z,11.24
2022-10-03T16:41:26.901Z,11.33
2022-10-03T16:43:59.647Z,11.23
2022-10-03T16:46:33.847Z,11.20
2022-10-03T16:49:29.356Z,11.11
2022-10-03T16:52:06.257Z,11.16
2022-10-03T16:54:33.792Z,11.16
2022-10-03T16:57:05.142Z,11.21
2022-10-03T16:59:32.788Z,11.15
2022-10-03T17:02:05.132Z,11.20
2022-10-03T17:04:40.047Z,11.03
2022-10-03T17:07:14.558Z,11.03
2022-10-03T17:09:51.564Z,11.04
2022-10-03T17:12:24.305Z,10.99
2022-10-03T17:14:53.479Z,10.87
2022-10-03T17:17:45.182Z,10.89
2022-10-03T17:20:29.547Z,10.88
2022-10-03T17:23:00.859Z,10.83
2022-10-03T17:25:55.698Z,10.74
2022-10-03T17:28:36.893Z,10.69
2022-10-03T17:31:17.967Z,10.80
2022-10-03T17:33:48.578Z,10.89
2022-10-03T17:36:27.288Z,10.90
2022-10-03T17:39:02.309Z,10.61
2022-10-03T17:41:52.659Z,10.61
2022-10-03T17:44:29.616Z,10.73
2022-10-03T17:47:19.248Z,10.67
2022-10-03T17:50:02.271Z,10.54
2022-10-03T17:52:29.768Z,10.61
2022-10-03T17:55:02.221Z,10.63
2022-10-03T17:57:34.798Z,10.52
2022-10-03T18:00:20.417Z,10.48
2022-10-03T18:03:05.633Z,10.51
2022-10-03T18:05:52.387Z,10.59
2022-10-03T18:08:24.314Z,10.52
2022-10-03T18:10:52.486Z,10.51
2022-10-03T18:13:31.066Z,10.48
2022-10-03T18:16:23.055Z,10.38
2022-10-03T18:18:56.716Z,10.35
2022-10-03T18:21:34.049Z,10.47
2022-10-03T18:24:20.955Z,10.32
2022-10-03T18:27:30.577Z,10.43
2022-10-03T18:30:05.682Z,10.35
2022-10-03T18:32:36.907Z,10.29
2022-10-03T18:35:11.376Z,10.33
2022-10-03T18:37:41.086Z,10.41
2022-10-03T18:40:18.779Z,10.39
2022-10-03T18:42:50.442Z,10.23
2022-10-03T18:45:43.882Z,10.18
2022-10-03T18:48:22.331Z,10.10
2022-10-03T18:51:05.627Z,10.10
2022-10-03T18:53:35.891Z,10.08
2022-10-03T18:56:06.870Z,10.12
2022-10-03T18:58:36.972Z,10.02
2022-10-03T19:01:41.067Z,10.09
2022-10-03T19:04:20.658Z,10.08
2022-10-03T19:06:52.262Z,10.11
2022-10-03T19:09:25.326Z,10.24
2022-10-03T19:12:06.141Z,10.21
2022-10-03T19:14:44.970Z,10.19
2022-10-03T19:17:17.895Z,10.07
2022-10-03T19:19:44.977Z,9.93
2022-10-03T19:22:14.076Z,10.08
2022-10-03T19:24:57.919Z,10.03
2022-10-03T19:27:40.588Z,9.89
2022-10-03T19:30:08.616Z,9.86
2022-10-03T19:32:41.188Z,9.79
2022-10-03T19:35:11.843Z,9.80
2022-10-03T19:37:45.716Z,9.85
2022-10-03T19:40:36.255Z,9.79
2022-10-03T19:43:17.182Z,9.87
2022-10-03T19:45:54.133Z,9.81
2022-10-03T19:48:22.297Z,9.60
2022-10-03T19:50:48.904Z,9.66
2022-10-03T19:53:17.866Z,9.54
2022-10-03T19:55:46.153Z,9.58
2022-10-03T19:58:24.172Z,9.67
2022-10-03T20:00:54.055Z,9.70
2022-10-03T20:03:54.453Z,9.68
2022-10-03T20:06:28.928Z,9.48
2022-10-03T20:09:01.467Z,9.42
2022-10-03T20:11:39.756Z,9.42
2022-10-03T20:14:07.436Z,9.43
2022-10-03T20:16:41.692Z,9.30
2022-10-03T20:19:20.892Z,9.29
2022-10-03T20:22:05.808Z,9.04
2022-10-03T20:24:35.776Z,9.04
2022-10-03T20:27:05.246Z,9.13
2022-10-03T20:29:37.390Z,9.15
2022-10-03T20:32:04.842Z,9.13
2022-10-03T20:34:34.673Z,9.00
2022-10-03T20:37:17.535Z,8.87
2022-10-03T20:39:45.594Z,8.84
2022-10-03T20:42:26.098Z,8.83
2022-10-03T20:45:02.068Z,8.94
2022-10-03T20:47:37.653Z,8.99
2022-10-03T20:50:27.997Z,8.85
2022-10-03T20:52:58.838Z,8.93
2022-10-03T20:55:29.747Z,9.06
2022-10-03T20:58:04.957Z,9.06
2022-10-03T21:00:31.745Z,9.02
2022-10-03T21:03:07.689Z,8.92
2022-10-03T21:05:35.978Z,8.89
2022-10-03T21:08:20.778Z,9.01
2022-10-03T21:11:00.287Z,8.96
2022-10-03T21:13:51.161Z,8.75
2022-10-03T21:16:22.255Z,8.86
2022-10-03T21:18:50.382Z,8.80
2022-10-03T21:21:19.571Z,8.81
2022-10-03T21:24:02.104Z,8.74
2022-10-03T21:26:37.759Z,8.74
2022-10-03T21:29:28.846Z,8.85
2022-10-03T21:32:25.774Z,8.79
2022-10-03T21:35:01.410Z,8.54
2022-10-03T21:37:57.967Z,8.42
2022-10-03T21:40:32.204Z,8.29
2022-10-03T21:43:12.485Z,8.26
2022-10-03T21:46:18.842Z,8.18
2022-10-03T21:49:00.386Z,8.22
2022-10-03T21:51:31.860Z,8.03
2022-10-03T21:54:35.938Z,7.96
2022-10-03T21:57:14.688Z,7.93
2022-10-03T22:00:10.915Z,7.98
2022-10-03T22:03:03.446Z,7.97
2022-10-03T22:05:45.794Z,7.95
2022-10-03T22:08:21.036Z,7.95
2022-10-03T22:10:56.199Z,7.87
2022-10-03T22:13:24.561Z,7.71
2022-10-03T22:16:08.470Z,7.67
2022-10-03T22:18:56.224Z,7.69
2022-10-03T22:21:26.229Z,7.63
2022-10-03T22:24:09.937Z,7.59
2022-10-03T22:27:01.055Z,7.55
2022-10-03T22:30:03.915Z,7.54
2022-10-03T22:32:38.445Z,7.56
2022-10-03T22:35:23.283Z,7.51
2022-10-03T22:37:50.337Z,7.48
2022-10-03T22:40:17.413Z,7.45
2022-10-03T22:42:46.688Z,7.43
2022-10-03T22:45:14.688Z,7.39
2022-10-03T22:47:42.357Z,7.35
2022-10-03T22:50:12.021Z,7.32
2022-10-03T22:52:41.261Z,7.33
2022-10-03T22:55:12.217Z,7.38
2022-10-03T22:57:41.718Z,7.44
2022-10-03T23:00:13.822Z,7.41
2022-10-03T23:03:06.511Z,7.47
2022-10-03T23:05:50.669Z,7.41
2022-10-03T23:08:26.571Z,7.28
2022-10-03T23:11:06.856Z,7.26
2022-10-03T23:13:44.105Z,7.30
2022-10-03T23:17:05.740Z,7.22
2022-10-03T23:20:06.413Z,7.10
2022-10-03T23:22:35.688Z,7.06
2022-10-03T23:25:07.398Z,6.87
2022-10-03T23:27:49.109Z,6.84
2022-10-03T23:30:15.684Z,6.83
2022-10-03T23:32:48.165Z,7.01
2022-10-03T23:35:43.177Z,7.04
2022-10-03T23:38:31.872Z,7.08
2022-10-03T23:41:02.086Z,7.05
2022-10-03T23:43:51.569Z,7.07
2022-10-03T23:46:23.961Z,6.79
2022-10-03T23:48:54.417Z,6.88
2022-10-03T23:51:28.396Z,6.62
2022-10-03T23:54:02.619Z,6.64
2022-10-03T23:56:41.711Z,6.64
2022-10-03T23:59:10.186Z,6.63
